createdAt,value
2022-08-23T00:00:52.003Z,81.7
2022-08-23T00:20:51.898Z,82.1
2022-08-23T00:40:51.876Z,83
2022-08-23T01:00:51.855Z,83.2
2022-08-23T01:20:51.805Z,83.2
2022-08-23T01:40:51.770Z,82.9
2022-08-23T02:00:51.679Z,83.5
2022-08-23T02:20:51.634Z,84.1
2022-08-23T02:40:52.887Z,84.2
2022-08-23T03:00:51.557Z,84.4
2022-08-23T03:20:51.480Z,84.9
2022-08-23T03:40:51.429Z,86.6
2022-08-23T04:00:51.383Z,87.5
2022-08-23T04:20:51.349Z,88.7
2022-08-23T04:40:51.311Z,89.5
2022-08-23T05:00:51.710Z,89.2
2022-08-23T05:20:51.186Z,89.4
2022-08-23T05:40:52.072Z,88.9
2022-08-23T06:00:51.127Z,88.2
2022-08-23T06:20:51.086Z,86.7
2022-08-23T06:40:51.003Z,85.2
2022-08-23T07:00:54.222Z,82.6
2022-08-23T07:20:50.895Z,81.8
2022-08-23T07:40:51.141Z,81
2022-08-23T08:00:50.790Z,80.3
2022-08-23T08:20:50.733Z,78.6
2022-08-23T08:40:50.676Z,78.4
2022-08-23T09:00:53.914Z,75.6
2022-08-23T09:20:50.604Z,74
2022-08-23T09:40:50.545Z,71.9
2022-08-23T10:00:50.500Z,70.2
2022-08-23T10:20:50.462Z,66
2022-08-23T10:40:50.411Z,63.9
2022-08-23T11:00:50.447Z,62.4
2022-08-23T11:20:50.314Z,61.4
2022-08-23T11:40:50.339Z,59.7
2022-08-23T12:00:50.220Z,58.1
2022-08-23T12:20:50.172Z,59.5
2022-08-23T12:40:50.080Z,57.9
2022-08-23T13:00:50.072Z,57.8
2022-08-23T13:20:49.978Z,57.9
2022-08-23T13:40:49.930Z,56.8
2022-08-23T14:00:55.167Z,56.5
2022-08-23T14:20:51.163Z,56.9
2022-08-23T14:40:49.807Z,57.4
2022-08-23T15:00:49.782Z,55.9
2022-08-23T15:20:49.703Z,56.9
2022-08-23T15:40:49.665Z,55.6
2022-08-23T16:00:49.625Z,58.5
2022-08-23T16:20:49.546Z,59
2022-08-23T16:40:49.495Z,61
2022-08-23T17:00:49.432Z,60.8
2022-08-23T17:20:49.396Z,62.5
2022-08-23T17:40:49.355Z,64.7
2022-08-23T18:00:49.645Z,67.5
2022-08-23T18:20:49.586Z,71
2022-08-23T18:40:49.563Z,73.6
2022-08-23T19:00:49.286Z,76
2022-08-23T19:20:49.343Z,79.1
2022-08-23T19:40:49.351Z,80.6
2022-08-23T20:00:49.320Z,81.7
2022-08-23T20:20:49.442Z,83
2022-08-23T20:40:49.134Z,84.2
2022-08-23T21:00:49.143Z,84.4
2022-08-23T21:20:49.066Z,84.8
2022-08-23T21:40:49.061Z,85.4
2022-08-23T22:00:48.666Z,87.2
2022-08-23T22:20:48.932Z,88.8
2022-08-23T22:40:48.988Z,89
2022-08-23T23:20:48.844Z,88.9
2022-08-23T23:40:48.788Z,89.1
